Dades meteomassalio
Diari Summary for Gener 17, 2017 Units:  English    Metric   Both
« Previous Day
Next Day »
Diari Semanal Mensual Anual Personalitzat
  Maxima: Minima: Mijana:
Temperatura: 47.1 °F 31.5 °F 40.8 °F
Rosada: 40.5 °F 9.3 °F 24.4 °F
Humitat: 79 % 25 % 54 %
Velocitat del vent: 39.1 mph 10.4 mph 21.6 mph
Racha vent: 39.1 mph - -
Vent:- - NW
Pressio: 30.2 in 30 in -
Pluja: 0 in    
Historical Graphs
 
 
Tabular Data for Gener 17, 2017
Time Temperature Dew Point Pressure Wind Wind Speed Wind Gust Humidity Rainfall Rate (Hourly) solar Conditions
00:01 46.6 °F 40.5 °F 30 in NW 27.6 mph 27.6 mph 79 % 0 in 0.0 W/m2 CLR
00:06 46.6 °F 40.5 °F 30 in NW 21.9 mph 21.9 mph 79 % 0 in 0.0 W/m2 CLR
00:11 46.6 °F 40.5 °F 30 in NW 26.5 mph 26.5 mph 79 % 0 in 0.0 W/m2 CLR
00:16 46.6 °F 40.1 °F 30 in NW 26 mph 26 mph 78 % 0 in 0.0 W/m2 CLR
00:21 46.6 °F 40.1 °F 30 in NW 24.2 mph 24.2 mph 78 % 0 in 0.0 W/m2 CLR
00:26 46.6 °F 40.1 °F 30 in NW 26.5 mph 26.5 mph 78 % 0 in 0.0 W/m2 CLR
00:31 46.6 °F 40.1 °F 30 in NW 19.6 mph 19.6 mph 78 % 0 in 0.0 W/m2 CLR
00:36 46.6 °F 39.9 °F 30 in NW 21.9 mph 21.9 mph 78 % 0 in 0.0 W/m2 CLR
00:41 46.8 °F 39.9 °F 30 in NW 27.6 mph 27.6 mph 77 % 0 in 0.0 W/m2 CLR
00:46 46.8 °F 39.6 °F 30 in NW 27.6 mph 27.6 mph 76 % 0 in 0.0 W/m2 CLR
00:51 46.9 °F 39.7 °F 30 in NW 39.1 mph 39.1 mph 76 % 0 in 0.0 W/m2
00:56 46.9 °F 39.6 °F 30 in NW 26.5 mph 26.5 mph 75 % 0 in 0.0 W/m2 CLR
01:01 46.9 °F 39.4 °F 30 in NNW 26 mph 26 mph 75 % 0 in 0.0 W/m2 CLR
01:06 46.9 °F 39.4 °F 30 in NNW 38 mph 38 mph 75 % 0 in 0.0 W/m2 CLR
01:11 46.9 °F 39.4 °F 30 in NNW 28.8 mph 28.8 mph 75 % 0 in 0.0 W/m2 CLR
01:16 46.8 °F 39.4 °F 30 in NW 24.2 mph 24.2 mph 75 % 0 in 0.0 W/m2 CLR
01:21 46.8 °F 39.4 °F 30 in NW 27 mph 27 mph 75 % 0 in 0.0 W/m2 CLR
01:26 46.9 °F 39 °F 30 in NNW 31.1 mph 31.1 mph 74 % 0 in 0.0 W/m2 CLR
01:31 46.9 °F 39 °F 30 in NNW 26.5 mph 26.5 mph 74 % 0 in 0.0 W/m2 CLR
01:36 46.9 °F 39 °F 30 in NW 26.5 mph 26.5 mph 74 % 0 in 0.0 W/m2 CLR
01:41 46.9 °F 39 °F 30 in NW 28 mph 28 mph 74 % 0 in 0.0 W/m2 CLR
01:46 46.9 °F 39 °F 30 in NW 27 mph 27 mph 74 % 0 in 0.0 W/m2 CLR
01:51 47.1 °F 38.8 °F 30 in NNW 31.1 mph 31.1 mph 73 % 0 in 0.0 W/m2 CLR
01:56 47.1 °F 38.8 °F 30 in NNW 22 mph 22 mph 73 % 0 in 0.0 W/m2 CLR
02:01 46.9 °F 38.8 °F 30 in NNW 26.5 mph 26.5 mph 73 % 0 in 0.0 W/m2 CLR
02:06 46.9 °F 38.8 °F 30 in NNW 28 mph 28 mph 73 % 0 in 0.0 W/m2 CLR
02:11 47.1 °F 38.8 °F 30 in NW 36 mph 36 mph 73 % 0 in 0.0 W/m2 CLR
02:16 47.1 °F 38.8 °F 30 in NW 26.5 mph 26.5 mph 73 % 0 in 0.0 W/m2 CLR
02:21 47.1 °F 38.8 °F 30 in NNW 33.4 mph 33.4 mph 73 % 0 in 0.0 W/m2 CLR
02:26 47.1 °F 38.8 °F 30 in NW 32.2 mph 32.2 mph 73 % 0 in 0.0 W/m2 CLR
02:31 46.9 °F 38.8 °F 30 in NW 27.6 mph 27.6 mph 73 % 0 in 0.0 W/m2 CLR
02:36 46.9 °F 38.8 °F 30 in NW 36.8 mph 36.8 mph 73 % 0 in 0.0 W/m2 CLR
02:41 47.1 °F 38.8 °F 30 in NW 31 mph 31 mph 73 % 0 in 0.0 W/m2 CLR
02:46 47.1 °F 38.5 °F 30 in NNW 29.9 mph 29.9 mph 72 % 0 in 0.0 W/m2 CLR
02:51 47.1 °F 38.7 °F 30 in NNW 31.1 mph 31.1 mph 72 % 0 in 0.0 W/m2 CLR
02:56 47.1 °F 38.7 °F 30 in NNW 34.5 mph 34.5 mph 72 % 0 in 0.0 W/m2 CLR
03:01 47.1 °F 38.8 °F 30 in NNW 34.5 mph 34.5 mph 73 % 0 in 0.0 W/m2 CLR
03:06 46.9 °F 38.8 °F 30 in NW 29.9 mph 29.9 mph 73 % 0 in 0.0 W/m2 CLR
03:11 47.1 °F 38.8 °F 30 in NW 29.9 mph 29.9 mph 73 % 0 in 0.0 W/m2
03:16 46.9 °F 38.8 °F 30 in NNW 28 mph 28 mph 73 % 0 in 0.0 W/m2 CLR
03:21 46.9 °F 38.8 °F 30 in NNW 31.1 mph 31.1 mph 73 % 0 in 0.0 W/m2 CLR
03:26 46.9 °F 38.8 °F 30 in NNW 33.4 mph 33.4 mph 73 % 0 in 0.0 W/m2 CLR
03:31 46.9 °F 38.7 °F 30 in NNW 26.5 mph 26.5 mph 73 % 0 in 0.0 W/m2 CLR
03:36 46.9 °F 38.7 °F 30 in NNW 36.8 mph 36.8 mph 73 % 0 in 0.0 W/m2 CLR
03:41 46.9 °F 38.7 °F 30 in NNW 31.1 mph 31.1 mph 73 % 0 in 0.0 W/m2 CLR
03:46 46.8 °F 38.7 °F 30 in NNW 34.5 mph 34.5 mph 73 % 0 in 0.0 W/m2 CLR
03:51 46.8 °F 38.5 °F 30 in NW 29.9 mph 29.9 mph 73 % 0 in 0.0 W/m2 CLR
03:56 46.6 °F 38.5 °F 30 in NNW 34.5 mph 34.5 mph 73 % 0 in 0.0 W/m2
04:01 46.6 °F 38.3 °F 30 in NNW 31.1 mph 31.1 mph 73 % 0 in 0.0 W/m2 CLR
04:06 46.6 °F 38.3 °F 30 in NW 29.9 mph 29.9 mph 73 % 0 in 0.0 W/m2 CLR
04:11 46.2 °F 38.1 °F 30 in NW 24.2 mph 24.2 mph 73 % 0 in 0.0 W/m2 CLR
04:16 46.2 °F 37.9 °F 30 in NNW 28 mph 28 mph 73 % 0 in 0.0 W/m2 CLR
04:21 46.2 °F 38.1 °F 30 in NNW 28.8 mph 28.8 mph 73 % 0 in 0.0 W/m2 CLR
04:26 46.2 °F 37.8 °F 30 in NNW 33.4 mph 33.4 mph 72 % 0 in 0.0 W/m2 CLR
04:31 46 °F 37.6 °F 30 in NNW 27 mph 27 mph 72 % 0 in 0.0 W/m2 CLR
04:36 46 °F 37.6 °F 30 in NNW 31.1 mph 31.1 mph 72 % 0 in 0.0 W/m2 CLR
04:41 45.9 °F 37.4 °F 30 in NNW 26.5 mph 26.5 mph 72 % 0 in 0.0 W/m2 CLR
04:46 45.9 °F 37.4 °F 30 in NNW 34.5 mph 34.5 mph 72 % 0 in 0.0 W/m2
04:51 45.9 °F 37.2 °F 30 in NW 33.4 mph 33.4 mph 72 % 0 in 0.0 W/m2 CLR
04:56 45.7 °F 36.9 °F 30 in NW 24.2 mph 24.2 mph 71 % 0 in 0.0 W/m2 CLR
04:57 45.7 °F 37.2 °F 30 in NW 24.2 mph 24.2 mph 72 % 0 in 0.0 W/m2 CLR
05:02 45.7 °F 36.9 °F 30 in NW 34.5 mph 34.5 mph 71 % 0 in 0.0 W/m2 CLR
05:07 45.5 °F 36.7 °F 30 in NW 21 mph 21 mph 71 % 0 in 0.0 W/m2 CLR
05:12 45.1 °F 36.3 °F 30 in NW 21 mph 21 mph 71 % 0 in 0.0 W/m2 CLR
05:17 45.1 °F 36.3 °F 30 in NNW 27.6 mph 27.6 mph 71 % 0 in 0.0 W/m2 CLR
05:22 45 °F 36.1 °F 30 in NNW 24.2 mph 24.2 mph 71 % 0 in 0.0 W/m2 CLR
05:27 44.8 °F 36 °F 30 in NNW 25 mph 25 mph 71 % 0 in 0.0 W/m2 CLR
05:32 44.8 °F 36 °F 30 in NNW 23 mph 23 mph 71 % 0 in 0.0 W/m2 CLR
05:37 44.4 °F 36 °F 30 in NW 26 mph 26 mph 72 % 0 in 0.0 W/m2 CLR
05:42 44.4 °F 36 °F 30 in NW 29 mph 29 mph 72 % 0 in 0.0 W/m2 CLR
05:47 44.2 °F 35.8 °F 30 in NW 26 mph 26 mph 72 % 0 in 0.0 W/m2 CLR
05:52 44.2 °F 35.8 °F 30 in NNW 23 mph 23 mph 72 % 0 in 0.0 W/m2 CLR
05:57 44.1 °F 35.6 °F 30 in NW 31.1 mph 31.1 mph 72 % 0 in 0.0 W/m2 CLR
06:02 43.7 °F 35.2 °F 30 in NW 28.8 mph 28.8 mph 72 % 0 in 0.0 W/m2 CLR
06:07 43.5 °F 35.4 °F 30 in NNW 23 mph 23 mph 73 % 0 in 0.0 W/m2 CLR
06:12 43.3 °F 35.2 °F 30 in NNW 31.1 mph 31.1 mph 73 % 0 in 0.0 W/m2 CLR
06:17 43 °F 34.9 °F 30 in NNW 24.2 mph 24.2 mph 73 % 0 in 0.0 W/m2 CLR
06:22 43 °F 34.9 °F 30 in NNW 26.5 mph 26.5 mph 73 % 0 in 0.0 W/m2 CLR
06:27 42.8 °F 34.7 °F 30 in NNW 26.5 mph 26.5 mph 73 % 0 in 0.0 W/m2 CLR
06:32 42.6 °F 34.5 °F 30 in NW 25.3 mph 25.3 mph 73 % 0 in 0.0 W/m2 CLR
06:37 42.4 °F 34.3 °F 30 in NW 28.8 mph 28.8 mph 73 % 0 in 0.0 W/m2 CLR
06:43 42.4 °F 34.3 °F 30 in NW 28.8 mph 28.8 mph 73 % 0 in 0.0 W/m2 CLR
06:48 42.1 °F 34.2 °F 30 in NW 28.8 mph 28.8 mph 73 % 0 in 0.0 W/m2 CLR
06:53 41.9 °F 34 °F 30 in NW 26.5 mph 26.5 mph 73 % 0 in 0.0 W/m2 CLR
06:58 41.7 °F 33.8 °F 30 in NNW 24.2 mph 24.2 mph 73 % 0 in 0.0 W/m2 CLR
07:03 41.5 °F 33.6 °F 30 in NNW 24.2 mph 24.2 mph 73 % 0 in 0.0 W/m2 CLR
07:08 41.5 °F 33.4 °F 30 in NNW 17.3 mph 17.3 mph 73 % 0 in 0.0 W/m2 CLR
07:13 41.4 °F 33.3 °F 30 in NNW 18.4 mph 18.4 mph 73 % 0 in 0.0 W/m2 CLR
07:18 41 °F 33.3 °F 30.1 in NNW 17.3 mph 17.3 mph 74 % 0 in 0.0 W/m2 CLR
07:23 40.8 °F 33.3 °F 30.1 in NNW 16.1 mph 16.1 mph 74 % 0 in 0.0 W/m2 CLR
07:28 40.6 °F 33.1 °F 30.1 in NNW 17.3 mph 17.3 mph 74 % 0 in 0.0 W/m2 CLR
07:33 40.5 °F 32.9 °F 30.1 in North 15 mph 15 mph 74 % 0 in 0.0 W/m2 CLR
07:38 40.3 °F 32.7 °F 30.1 in NNW 16.1 mph 16.1 mph 74 % 0 in 0.0 W/m2 CLR
07:43 40.1 °F 32.5 °F 30.1 in NNW 15 mph 15 mph 74 % 0 in 0.0 W/m2 CLR
07:48 39.7 °F 32.2 °F 30.1 in NNW 15 mph 15 mph 74 % 0 in 0.0 W/m2 CLR
07:53 39.7 °F 31.8 °F 30.1 in NNW 14 mph 14 mph 73 % 0 in 0.0 W/m2 CLR
07:58 39.7 °F 31.8 °F 30.1 in NNW 19.6 mph 19.6 mph 73 % 0 in 0.0 W/m2 CLR
08:03 39.6 °F 31.3 °F 30.1 in NNW 17.3 mph 17.3 mph 72 % 0 in 0.0 W/m2 CLR
08:08 39.4 °F 31.1 °F 30.1 in NW 19 mph 19 mph 72 % 0 in 0.0 W/m2 CLR
08:13 39.4 °F 30.9 °F 30.1 in NW 18.4 mph 18.4 mph 72 % 0 in 0.0 W/m2 CLR
08:18 39 °F 30.6 °F 30.1 in NW 21.9 mph 21.9 mph 71 % 0 in 0.0 W/m2 CLR
08:23 38.8 °F 30.4 °F 30.1 in NW 20 mph 20 mph 71 % 0 in 5.0 W/m2 BKN
08:28 38.8 °F 29.8 °F 30.1 in NW 21.9 mph 21.9 mph 70 % 0 in 7.0 W/m2 BKN
08:33 38.7 °F 29.8 °F 30.1 in NW 24.2 mph 24.2 mph 70 % 0 in 9.0 W/m2 BKN
08:38 38.5 °F 29.7 °F 30.1 in NW 19.6 mph 19.6 mph 70 % 0 in 11.0 W/m2 BKN
08:43 38.3 °F 29.5 °F 30.1 in NW 17.3 mph 17.3 mph 70 % 0 in 12.0 W/m2 BKN
08:48 38.3 °F 29.5 °F 30.1 in NW 19.6 mph 19.6 mph 70 % 0 in 14.0 W/m2 BKN
08:53 38.1 °F 29.1 °F 30.1 in NW 17.3 mph 17.3 mph 70 % 0 in 25.0 W/m2 BKN
08:58 37.9 °F 28.9 °F 30.1 in NW 18.4 mph 18.4 mph 70 % 0 in 37.0 W/m2 BKN
09:03 37.9 °F 28.6 °F 30.1 in NW 18.4 mph 18.4 mph 69 % 0 in 37.0 W/m2 BKN
09:08 37.9 °F 28.6 °F 30.1 in NW 19.6 mph 19.6 mph 69 % 0 in 47.0 W/m2 BKN
09:13 37.9 °F 28.4 °F 30.1 in NW 23 mph 23 mph 68 % 0 in 58.0 W/m2 BKN
09:18 37.9 °F 28 °F 30.1 in NW 21.9 mph 21.9 mph 67 % 0 in 72.0 W/m2 BKN
09:23 37.9 °F 28 °F 30.1 in NW 23 mph 23 mph 67 % 0 in 79.0 W/m2 BKN
09:28 38.1 °F 27.7 °F 30.1 in NW 23 mph 23 mph 66 % 0 in 100.0 W/m2 BKN
09:33 38.1 °F 27.7 °F 30.1 in NW 21.9 mph 21.9 mph 66 % 0 in 113.0 W/m2 BKN
09:38 38.1 °F 27 °F 30.1 in NW 22 mph 22 mph 64 % 0 in 114.0 W/m2 BKN
09:43 38.3 °F 27.1 °F 30.1 in NNW 19.6 mph 19.6 mph 64 % 0 in 146.0 W/m2 BKN
09:48 38.3 °F 26.8 °F 30.1 in NW 18.4 mph 18.4 mph 63 % 0 in 162.0 W/m2 BKN
09:53 38.5 °F 27 °F 30.1 in NW 18.4 mph 18.4 mph 63 % 0 in 169.0 W/m2 SCT
09:58 38.5 °F 26.2 °F 30.1 in NW 19.6 mph 19.6 mph 61 % 0 in 162.0 W/m2 SCT
10:03 38.7 °F 26.4 °F 30.1 in NW 24.2 mph 24.2 mph 61 % 0 in 206.0 W/m2 BKN
10:08 38.7 °F 26.1 °F 30.1 in NW 19.6 mph 19.6 mph 60 % 0 in 200.0 W/m2 SCT
10:13 38.8 °F 26.2 °F 30.1 in NW 18.4 mph 18.4 mph 60 % 0 in 236.0 W/m2 SCT
10:18 39 °F 26.1 °F 30.1 in NW 19.6 mph 19.6 mph 59 % 0 in 251.0 W/m2 SCT
10:24 39.4 °F 26.2 °F 30.1 in NW 16.1 mph 16.1 mph 59 % 0 in 267.0 W/m2 SCT
10:29 39.4 °F 25.9 °F 30.1 in NW 19.6 mph 19.6 mph 58 % 0 in 281.0 W/m2 SCT
10:34 39.6 °F 25.5 °F 30.1 in NW 15 mph 15 mph 57 % 0 in 294.0 W/m2 SCT
10:39 39.7 °F 25.3 °F 30.1 in NW 13.8 mph 13.8 mph 56 % 0 in 306.0 W/m2 FEW
10:44 39.9 °F 25 °F 30.1 in NW 20.7 mph 20.7 mph 55 % 0 in 316.0 W/m2 FEW
10:49 39.7 °F 24.4 °F 30.1 in NW 17.3 mph 17.3 mph 54 % 0 in 325.0 W/m2 FEW
10:54 39.9 °F 24.6 °F 30.1 in NW 16.1 mph 16.1 mph 54 % 0 in 338.0 W/m2 FEW
10:59 40.5 °F 25.2 °F 30.1 in NW 19 mph 19 mph 54 % 0 in 346.0 W/m2 FEW
11:04 40.6 °F 24.3 °F 30.1 in NW 17.3 mph 17.3 mph 52 % 0 in 359.0 W/m2 FEW
11:09 40.6 °F 24.4 °F 30.1 in NW 17.3 mph 17.3 mph 52 % 0 in 366.0 W/m2 FEW
11:14 40.8 °F 23.5 °F 30.1 in NW 16.1 mph 16.1 mph 50 % 0 in 374.0 W/m2 FEW
11:19 41 °F 23.7 °F 30.1 in NW 18.4 mph 18.4 mph 50 % 0 in 383.0 W/m2 FEW
11:24 41.2 °F 23.9 °F 30.1 in NW 17.3 mph 17.3 mph 50 % 0 in 392.0 W/m2 FEW
11:29 41.2 °F 23.9 °F 30.1 in NW 20.7 mph 20.7 mph 50 % 0 in 399.0 W/m2 FEW
11:34 41.2 °F 23 °F 30.1 in NNW 18.4 mph 18.4 mph 48 % 0 in 410.0 W/m2 FEW
11:39 41.2 °F 23.4 °F 30.1 in NW 25.3 mph 25.3 mph 49 % 0 in 415.0 W/m2 CLR
11:44 40.8 °F 22.6 °F 30.1 in NNW 25.3 mph 25.3 mph 48 % 0 in 422.0 W/m2 CLR
11:49 40.6 °F 21.9 °F 30.1 in NNW 25 mph 25 mph 47 % 0 in 427.0 W/m2 CLR
11:54 41 °F 22.3 °F 30.1 in NNW 17.3 mph 17.3 mph 47 % 0 in 436.0 W/m2 CLR
11:59 41.4 °F 22.1 °F 30.1 in NNW 16.1 mph 16.1 mph 46 % 0 in 438.0 W/m2 CLR
12:04 41.4 °F 21.6 °F 30.1 in NNW 13.8 mph 13.8 mph 45 % 0 in 443.0 W/m2 CLR
12:09 41.5 °F 21.7 °F 30.1 in NNW 17.3 mph 17.3 mph 45 % 0 in 448.0 W/m2 CLR
12:14 41.5 °F 21.7 °F 30.1 in NNW 24.2 mph 24.2 mph 45 % 0 in 454.0 W/m2 CLR
12:19 41.4 °F 21.6 °F 30.1 in NNW 19.6 mph 19.6 mph 45 % 0 in 457.0 W/m2 CLR
12:24 41.4 °F 21 °F 30.1 in NNW 21.9 mph 21.9 mph 44 % 0 in 462.0 W/m2 CLR
12:29 41.5 °F 21.7 °F 30.1 in NNW 21.9 mph 21.9 mph 45 % 0 in 464.0 W/m2 CLR
12:34 41.7 °F 21.4 °F 30.1 in NNW 19.6 mph 19.6 mph 44 % 0 in 468.0 W/m2 CLR
12:39 41.7 °F 21.4 °F 30.1 in NNW 19.6 mph 19.6 mph 44 % 0 in 471.0 W/m2 CLR
12:44 41.7 °F 20.8 °F 30.1 in NNW 20.7 mph 20.7 mph 43 % 0 in 475.0 W/m2 CLR
12:49 42.1 °F 21 °F 30.1 in NNW 20.7 mph 20.7 mph 43 % 0 in 475.0 W/m2 CLR
12:54 41.9 °F 21 °F 30.1 in NNW 24.2 mph 24.2 mph 43 % 0 in 473.0 W/m2 CLR
12:59 41.7 °F 20.8 °F 30.1 in NNW 19.6 mph 19.6 mph 43 % 0 in 476.0 W/m2 CLR
13:04 42.1 °F 21.2 °F 30.1 in NW 17.3 mph 17.3 mph 43 % 0 in 475.0 W/m2 CLR
13:09 42.3 °F 21.4 °F 30.1 in NW 17.3 mph 17.3 mph 43 % 0 in 476.0 W/m2 CLR
13:14 42.6 °F 20.5 °F 30.1 in NW 25.3 mph 25.3 mph 41 % 0 in 480.0 W/m2 CLR
13:19 42.3 °F 20.8 °F 30.1 in NW 21 mph 21 mph 42 % 0 in 478.0 W/m2 CLR
13:24 42.4 °F 20.3 °F 30.1 in NW 24.2 mph 24.2 mph 41 % 0 in 478.0 W/m2 CLR
13:29 42.4 °F 19.8 °F 30.1 in NW 23 mph 23 mph 40 % 0 in 476.0 W/m2 CLR
13:34 42.6 °F 20.5 °F 30.1 in NNW 17.3 mph 17.3 mph 41 % 0 in 473.0 W/m2 CLR
13:39 43 °F 20.1 °F 30.1 in NNW 19 mph 19 mph 40 % 0 in 471.0 W/m2 CLR
13:44 43 °F 20.1 °F 30.1 in NNW 19.6 mph 19.6 mph 40 % 0 in 469.0 W/m2 CLR
13:49 43.3 °F 21 °F 30.1 in NW 18.4 mph 18.4 mph 41 % 0 in 469.0 W/m2 CLR
13:54 43.2 °F 19.2 °F 30.1 in NW 25.3 mph 25.3 mph 38 % 0 in 462.0 W/m2 CLR
13:59 43.2 °F 19.9 °F 30.1 in NW 16.1 mph 16.1 mph 39 % 0 in 461.0 W/m2 CLR
14:04 43.2 °F 18.7 °F 30.1 in NW 21.9 mph 21.9 mph 37 % 0 in 457.0 W/m2 CLR
14:09 43.5 °F 19.6 °F 30.1 in NW 23 mph 23 mph 38 % 0 in 457.0 W/m2 CLR
14:14 43.3 °F 18.9 °F 30.1 in NW 20 mph 20 mph 37 % 0 in 452.0 W/m2 CLR
14:19 43.5 °F 19 °F 30.1 in NW 19.6 mph 19.6 mph 37 % 0 in 445.0 W/m2 CLR
14:24 43.9 °F 18.5 °F 30.1 in NW 22 mph 22 mph 36 % 0 in 436.0 W/m2 CLR
14:29 43.9 °F 18 °F 30.1 in NW 23 mph 23 mph 35 % 0 in 431.0 W/m2 CLR
14:34 43.9 °F 17.2 °F 30.1 in NNW 23 mph 23 mph 34 % 0 in 424.0 W/m2 CLR
14:39 44.1 °F 17.4 °F 30.1 in NW 20 mph 20 mph 34 % 0 in 420.0 W/m2 CLR
14:44 44.1 °F 15.3 °F 30.1 in NW 25.3 mph 25.3 mph 31 % 0 in 418.0 W/m2 CLR
14:49 43.7 °F 15.1 °F 30.1 in NW 25.3 mph 25.3 mph 31 % 0 in 404.0 W/m2 CLR
14:54 43.9 °F 15.1 °F 30.1 in NNW 23 mph 23 mph 31 % 0 in 399.0 W/m2 CLR
14:59 44.2 °F 15.4 °F 30.1 in NW 29 mph 29 mph 31 % 0 in 390.0 W/m2 CLR
15:04 44.1 °F 14.5 °F 30.1 in NW 23 mph 23 mph 30 % 0 in 381.0 W/m2 CLR
15:09 43.9 °F 14.4 °F 30.1 in NW 25.3 mph 25.3 mph 30 % 0 in 373.0 W/m2 CLR
15:14 43.5 °F 14.2 °F 30.1 in NW 25.3 mph 25.3 mph 30 % 0 in 367.0 W/m2 CLR
15:19 43.5 °F 14.2 °F 30.1 in NW 23 mph 23 mph 30 % 0 in 359.0 W/m2 CLR
15:24 43.9 °F 13.6 °F 30.1 in NW 26 mph 26 mph 29 % 0 in 343.0 W/m2 CLR
15:29 44.1 °F 14.5 °F 30.1 in NW 22 mph 22 mph 30 % 0 in 334.0 W/m2 CLR
15:34 44.1 °F 13.6 °F 30.1 in NW 24.2 mph 24.2 mph 29 % 0 in 325.0 W/m2 CLR
15:39 43.7 °F 13.5 °F 30.1 in NNW 26 mph 26 mph 29 % 0 in 316.0 W/m2 CLR
15:44 43.9 °F 13.6 °F 30.1 in NW 24.2 mph 24.2 mph 29 % 0 in 304.0 W/m2 CLR
15:49 43.5 °F 13.5 °F 30.1 in NW 26.5 mph 26.5 mph 29 % 0 in 294.0 W/m2 CLR
15:54 43.5 °F 12.6 °F 30.1 in NW 25.3 mph 25.3 mph 28 % 0 in 281.0 W/m2 CLR
15:59 43.5 °F 12.6 °F 30.1 in NW 21.9 mph 21.9 mph 28 % 0 in 269.0 W/m2 CLR
16:04 43.5 °F 12.6 °F 30.1 in WNW 19.6 mph 19.6 mph 28 % 0 in 253.0 W/m2 CLR
16:09 43.5 °F 12.6 °F 30.1 in WNW 17.3 mph 17.3 mph 28 % 0 in 241.0 W/m2 CLR
16:10 43.5 °F 12.6 °F 30.1 in WNW 19.6 mph 19.6 mph 28 % 0 in 241.0 W/m2 CLR
16:15 43.9 °F 12.7 °F 30.1 in NW 17.3 mph 17.3 mph 28 % 0 in 223.0 W/m2 CLR
16:20 43.9 °F 11.1 °F 30.1 in NW 21.9 mph 21.9 mph 26 % 0 in 209.0 W/m2 CLR
16:25 43.9 °F 11.1 °F 30.1 in NNW 23 mph 23 mph 26 % 0 in 193.0 W/m2 CLR
16:30 43.5 °F 10.8 °F 30.1 in NNW 20.7 mph 20.7 mph 26 % 0 in 179.0 W/m2 CLR
16:35 43.2 °F 9.7 °F 30.1 in NW 26.5 mph 26.5 mph 25 % 0 in 162.0 W/m2 CLR
16:40 42.8 °F 9.3 °F 30.1 in NW 21 mph 21 mph 25 % 0 in 148.0 W/m2 CLR
16:45 42.6 °F 10 °F 30.1 in NNW 12.7 mph 12.7 mph 26 % 0 in 134.0 W/m2 CLR
16:50 42.6 °F 10 °F 30.1 in NW 21.9 mph 21.9 mph 26 % 0 in 120.0 W/m2 CLR
16:55 42.3 °F 9.7 °F 30.1 in NW 20.7 mph 20.7 mph 26 % 0 in 104.0 W/m2 CLR
17:00 42.1 °F 9.5 °F 30.1 in NNW 22 mph 22 mph 26 % 0 in 90.0 W/m2 CLR
17:05 41.9 °F 10.2 °F 30.1 in NW 18.4 mph 18.4 mph 27 % 0 in 62.0 W/m2 CLR
17:10 41.7 °F 10.9 °F 30.1 in NW 16.1 mph 16.1 mph 28 % 0 in 47.0 W/m2 CLR
17:15 41.2 °F 10.6 °F 30.1 in NNW 19.6 mph 19.6 mph 28 % 0 in 49.0 W/m2 OVC
17:20 40.8 °F 10.2 °F 30.1 in NW 21.9 mph 21.9 mph 28 % 0 in 39.0 W/m2 OVC
17:25 40.5 °F 10.8 °F 30.1 in NW 25.3 mph 25.3 mph 29 % 0 in 30.0 W/m2 OVC
17:30 40.3 °F 10.6 °F 30.1 in NW 21.9 mph 21.9 mph 29 % 0 in 21.0 W/m2 OVC
17:35 39.9 °F 10.2 °F 30.1 in NW 29 mph 29 mph 29 % 0 in 16.0 W/m2 OVC
17:40 39.7 °F 10.8 °F 30.1 in NW 19.6 mph 19.6 mph 30 % 0 in 12.0 W/m2 OVC
17:45 39.4 °F 10.6 °F 30.1 in NW 19.6 mph 19.6 mph 30 % 0 in 11.0 W/m2 OVC
17:50 39 °F 10.9 °F 30.1 in NW 20.7 mph 20.7 mph 31 % 0 in 9.0 W/m2 OVC
17:55 38.8 °F 10.8 °F 30.1 in NW 16.1 mph 16.1 mph 31 % 0 in 7.0 W/m2 OVC
18:00 38.7 °F 10.6 °F 30.1 in NW 20.7 mph 20.7 mph 31 % 0 in 0.0 W/m2 CLR
18:05 38.5 °F 11.1 °F 30.1 in NW 19.6 mph 19.6 mph 32 % 0 in 0.0 W/m2 CLR
18:10 38.1 °F 10.9 °F 30.1 in NW 20.7 mph 20.7 mph 32 % 0 in 0.0 W/m2 CLR
18:15 37.9 °F 11.5 °F 30.1 in NW 17.3 mph 17.3 mph 33 % 0 in 0.0 W/m2 CLR
18:20 37.9 °F 11.3 °F 30.1 in NW 19.6 mph 19.6 mph 33 % 0 in 0.0 W/m2 CLR
18:25 37.8 °F 11.8 °F 30.1 in NW 18.4 mph 18.4 mph 34 % 0 in 0.0 W/m2 CLR
18:30 37.4 °F 11.5 °F 30.1 in NW 19.6 mph 19.6 mph 34 % 0 in 0.0 W/m2 CLR
18:35 37.2 °F 12 °F 30.1 in NW 15 mph 15 mph 35 % 0 in 0.0 W/m2 CLR
18:40 37 °F 11.8 °F 30.1 in NW 19.6 mph 19.6 mph 35 % 0 in 0.0 W/m2 CLR
18:46 37 °F 11.8 °F 30.1 in NW 23 mph 23 mph 35 % 0 in 0.0 W/m2 CLR
18:51 36.9 °F 12.4 °F 30.1 in NW 16.1 mph 16.1 mph 36 % 0 in 0.0 W/m2 CLR
18:56 36.7 °F 12.2 °F 30.1 in NW 21.9 mph 21.9 mph 36 % 0 in 0.0 W/m2 CLR
19:01 36.5 °F 12 °F 30.1 in NW 16.1 mph 16.1 mph 36 % 0 in 0.0 W/m2 CLR
19:06 36.3 °F 12.6 °F 30.1 in NW 18.4 mph 18.4 mph 37 % 0 in 0.0 W/m2 CLR
19:11 36.1 °F 12.4 °F 30.1 in NW 17.3 mph 17.3 mph 37 % 0 in 0.0 W/m2 CLR
19:16 36.1 °F 12.4 °F 30.1 in NW 19.6 mph 19.6 mph 37 % 0 in 0.0 W/m2 CLR
19:21 36.1 °F 12.4 °F 30.1 in NW 20 mph 20 mph 37 % 0 in 0.0 W/m2 CLR
19:26 36.1 °F 12.4 °F 30.1 in NW 19.6 mph 19.6 mph 37 % 0 in 0.0 W/m2 CLR
19:31 35.8 °F 12.6 °F 30.1 in NW 13.8 mph 13.8 mph 38 % 0 in 0.0 W/m2 CLR
19:36 35.6 °F 12.6 °F 30.1 in NW 19.6 mph 19.6 mph 38 % 0 in 0.0 W/m2 CLR
19:41 35.4 °F 12.9 °F 30.1 in WNW 17.3 mph 17.3 mph 39 % 0 in 0.0 W/m2 CLR
19:46 35.4 °F 12.9 °F 30.1 in WNW 18.4 mph 18.4 mph 39 % 0 in 0.0 W/m2 CLR
19:51 35.1 °F 12.6 °F 30.1 in NW 15 mph 15 mph 39 % 0 in 0.0 W/m2 CLR
19:56 34.9 °F 12.9 °F 30.1 in NW 19.6 mph 19.6 mph 40 % 0 in 0.0 W/m2 CLR
20:01 34.9 °F 12.9 °F 30.1 in NW 15 mph 15 mph 40 % 0 in 0.0 W/m2 CLR
20:06 34.9 °F 12.9 °F 30.1 in WNW 18.4 mph 18.4 mph 40 % 0 in 0.0 W/m2 CLR
20:11 34.9 °F 12.9 °F 30.1 in WNW 13.8 mph 13.8 mph 40 % 0 in 0.0 W/m2 CLR
20:16 34.5 °F 13.3 °F 30.1 in WNW 17 mph 17 mph 41 % 0 in 0.0 W/m2 CLR
20:21 34.3 °F 13.1 °F 30.1 in WNW 14 mph 14 mph 41 % 0 in 0.0 W/m2 CLR
20:26 34.2 °F 12.9 °F 30.1 in WNW 16.1 mph 16.1 mph 41 % 0 in 0.0 W/m2 CLR
20:31 34.2 °F 13.5 °F 30.1 in WNW 17.3 mph 17.3 mph 42 % 0 in 0.0 W/m2 CLR
20:36 34.2 °F 13.5 °F 30.1 in WNW 19.6 mph 19.6 mph 42 % 0 in 0.0 W/m2 CLR
20:41 34.2 °F 12.9 °F 30.1 in WNW 20 mph 20 mph 41 % 0 in 0.0 W/m2 CLR
20:46 34.2 °F 13.5 °F 30.1 in WNW 16.1 mph 16.1 mph 42 % 0 in 0.0 W/m2 CLR
20:51 33.8 °F 13.1 °F 30.1 in WNW 18 mph 18 mph 42 % 0 in 0.0 W/m2 CLR
20:56 33.6 °F 13.5 °F 30.2 in WNW 19.6 mph 19.6 mph 43 % 0 in 0.0 W/m2 CLR
21:01 33.6 °F 13.5 °F 30.2 in WNW 18.4 mph 18.4 mph 43 % 0 in 0.0 W/m2 CLR
21:06 33.4 °F 13.5 °F 30.2 in WNW 15 mph 15 mph 43 % 0 in 0.0 W/m2 CLR
21:11 33.3 °F 13.6 °F 30.2 in WNW 16.1 mph 16.1 mph 44 % 0 in 0.0 W/m2 CLR
21:16 33.3 °F 13.6 °F 30.2 in WNW 17.3 mph 17.3 mph 44 % 0 in 0.0 W/m2 CLR
21:21 33.3 °F 13.6 °F 30.2 in WNW 13 mph 13 mph 44 % 0 in 0.0 W/m2 CLR
21:26 33.3 °F 14.2 °F 30.2 in WNW 16.1 mph 16.1 mph 45 % 0 in 0.0 W/m2 CLR
21:31 33.3 °F 14.2 °F 30.2 in West 15 mph 15 mph 45 % 0 in 0.0 W/m2 CLR
21:36 33.3 °F 14.5 °F 30.2 in West 16 mph 16 mph 46 % 0 in 0.0 W/m2 CLR
21:41 33.1 °F 14.4 °F 30.2 in WNW 17.3 mph 17.3 mph 46 % 0 in 0.0 W/m2 CLR
21:46 33.1 °F 14.4 °F 30.2 in West 19.6 mph 19.6 mph 46 % 0 in 0.0 W/m2 CLR
21:51 33.1 °F 14.9 °F 30.2 in West 12.7 mph 12.7 mph 47 % 0 in 0.0 W/m2 CLR
21:56 32.9 °F 15.3 °F 30.2 in West 16.1 mph 16.1 mph 48 % 0 in 0.0 W/m2 CLR
22:01 32.7 °F 15.3 °F 30.2 in West 12.7 mph 12.7 mph 48 % 0 in 0.0 W/m2 CLR
22:06 32.7 °F 15.6 °F 30.2 in West 13.8 mph 13.8 mph 49 % 0 in 0.0 W/m2 CLR
22:11 32.5 °F 16 °F 30.2 in West 16.1 mph 16.1 mph 50 % 0 in 0.0 W/m2 CLR
22:16 32.5 °F 16 °F 30.2 in West 13 mph 13 mph 50 % 0 in 0.0 W/m2 CLR
22:21 32.4 °F 16.3 °F 30.2 in West 12 mph 12 mph 51 % 0 in 0.0 W/m2 CLR
22:26 32.4 °F 16.5 °F 30.2 in West 12.7 mph 12.7 mph 52 % 0 in 0.0 W/m2 CLR
22:31 32.2 °F 16.5 °F 30.2 in West 10.4 mph 10.4 mph 52 % 0 in 0.0 W/m2 CLR
22:36 32 °F 17.2 °F 30.2 in WSW 12.7 mph 12.7 mph 54 % 0 in 0.0 W/m2 CLR
22:41 31.8 °F 17.1 °F 30.2 in WSW 11.5 mph 11.5 mph 54 % 0 in 0.0 W/m2 CLR
22:46 31.8 °F 17.4 °F 30.2 in WSW 13 mph 13 mph 55 % 0 in 0.0 W/m2 CLR
22:51 32 °F 17.6 °F 30.2 in WSW 11.5 mph 11.5 mph 55 % 0 in 0.0 W/m2 CLR
22:56 31.8 °F 18 °F 30.2 in West 16.1 mph 16.1 mph 56 % 0 in 0.0 W/m2 CLR
23:01 31.8 °F 18 °F 30.2 in WSW 11.5 mph 11.5 mph 56 % 0 in 0.0 W/m2 CLR
23:07 31.8 °F 18 °F 30.2 in West 16.1 mph 16.1 mph 56 % 0 in 0.0 W/m2 CLR
23:12 31.8 °F 18.3 °F 30.2 in West 12 mph 12 mph 57 % 0 in 0.0 W/m2 CLR
23:17 31.8 °F 18.3 °F 30.2 in West 11.5 mph 11.5 mph 57 % 0 in 0.0 W/m2 CLR
23:22 31.6 °F 18.1 °F 30.2 in WSW 13 mph 13 mph 57 % 0 in 0.0 W/m2 CLR
23:27 31.6 °F 18.1 °F 30.2 in WSW 11.5 mph 11.5 mph 57 % 0 in 0.0 W/m2 CLR
23:32 31.5 °F 18 °F 30.2 in WSW 11.5 mph 11.5 mph 57 % 0 in 0.0 W/m2 CLR
23:37 31.6 °F 18.5 °F 30.2 in West 13.8 mph 13.8 mph 58 % 0 in 0.0 W/m2 CLR
23:42 31.6 °F 18.1 °F 30.2 in West 11.5 mph 11.5 mph 57 % 0 in 0.0 W/m2 CLR
23:47 31.6 °F 18.5 °F 30.2 in West 14 mph 14 mph 58 % 0 in 0.0 W/m2 CLR
23:52 31.6 °F 18.1 °F 30.2 in West 13.8 mph 13.8 mph 57 % 0 in 0.0 W/m2 CLR
23:57 31.6 °F 18.1 °F 30.2 in West 12.7 mph 12.7 mph 57 % 0 in 0.0 W/m2 CLR
Lo Temps de Massalio
Compliments of Weather Underground - 1.25 mb